createdAt,value
2022-10-10T00:00:48.433Z,100650.28
2022-10-10T00:02:50.281Z,100654.28
2022-10-10T00:04:52.192Z,100654.56
2022-10-10T00:06:53.691Z,100647.84
2022-10-10T00:08:55.180Z,100651.69
2022-10-10T00:10:56.853Z,100652.00
2022-10-10T00:13:03.013Z,100651.66
2022-10-10T00:15:05.532Z,100647.78
2022-10-10T00:17:07.023Z,100647.31
2022-10-10T00:19:08.650Z,100652.09
2022-10-10T00:21:10.428Z,100657.53
2022-10-10T00:23:11.978Z,100652.75
2022-10-10T00:25:13.802Z,100651.03
2022-10-10T00:27:15.370Z,100650.69
2022-10-10T00:29:18.431Z,100646.38
2022-10-10T00:31:19.957Z,100647.66
2022-10-10T00:33:21.719Z,100640.25
2022-10-10T00:35:23.330Z,100645.22
2022-10-10T00:37:25.166Z,100645.31
2022-10-10T00:39:26.727Z,100645.00
2022-10-10T00:41:28.370Z,100648.94
2022-10-10T00:43:33.948Z,100646.06
2022-10-10T00:45:40.980Z,100647.50
2022-10-10T00:47:42.602Z,100643.78
2022-10-10T00:49:44.609Z,100645.72
2022-10-10T00:51:48.315Z,100642.81
2022-10-10T00:53:52.826Z,100646.94
2022-10-10T00:55:55.465Z,100636.88
2022-10-10T00:58:00.035Z,100647.00
2022-10-10T01:00:03.943Z,100638.72
2022-10-10T01:02:07.117Z,100646.06
2022-10-10T01:04:33.871Z,100640.00
2022-10-10T01:06:35.378Z,100637.59
2022-10-10T01:08:40.074Z,100634.13
2022-10-10T01:10:52.800Z,100631.97
2022-10-10T01:13:07.410Z,100625.91
2022-10-10T01:15:17.848Z,100625.13
2022-10-10T01:17:30.030Z,100625.13
2022-10-10T01:20:06.888Z,100625.13
2022-10-10T01:22:21.219Z,100632.16
2022-10-10T01:24:50.342Z,100624.31
2022-10-10T01:27:13.296Z,100622.53
2022-10-10T01:29:24.514Z,100626.69
2022-10-10T01:31:26.553Z,100618.47
2022-10-10T01:33:36.620Z,100624.53
2022-10-10T01:35:48.622Z,100621.34
2022-10-10T01:37:57.963Z,100621.78
2022-10-10T01:40:04.353Z,100622.88
2022-10-10T01:42:10.113Z,100613.13
2022-10-10T01:44:11.844Z,100617.28
2022-10-10T01:46:17.503Z,100620.78
2022-10-10T01:48:22.348Z,100614.84
2022-10-10T01:50:26.126Z,100620.59
2022-10-10T01:52:43.163Z,100616.94
2022-10-10T01:54:55.351Z,100619.19
2022-10-10T01:57:06.670Z,100622.31
2022-10-10T01:59:19.066Z,100615.06
2022-10-10T02:01:28.135Z,100614.72
2022-10-10T02:03:32.691Z,100613.44
2022-10-10T02:05:42.108Z,100607.78
2022-10-10T02:07:47.427Z,100610.00
2022-10-10T02:09:52.172Z,100613.63
2022-10-10T02:11:55.117Z,100610.09
2022-10-10T02:14:02.522Z,100604.28
2022-10-10T02:16:08.649Z,100617.00
2022-10-10T02:18:14.557Z,100616.19
2022-10-10T02:20:20.388Z,100616.78
2022-10-10T02:22:24.401Z,100615.19
2022-10-10T02:24:25.897Z,100609.13
2022-10-10T02:26:28.826Z,100608.94
2022-10-10T02:28:36.555Z,100616.09
2022-10-10T02:30:42.254Z,100611.47
2022-10-10T02:32:47.185Z,100600.81
2022-10-10T02:34:54.798Z,100606.84
2022-10-10T02:37:02.760Z,100605.44
2022-10-10T02:39:06.756Z,100606.56
2022-10-10T02:41:11.518Z,100602.84
2022-10-10T02:43:15.208Z,100603.75
2022-10-10T02:45:18.939Z,100596.13
2022-10-10T02:47:20.475Z,100599.13
2022-10-10T02:49:33.345Z,100593.63
2022-10-10T02:51:36.425Z,100590.50
2022-10-10T02:53:38.450Z,100591.28
2022-10-10T02:55:42.784Z,100583.28
2022-10-10T02:57:44.344Z,100589.31
2022-10-10T02:59:45.951Z,100585.50
2022-10-10T03:01:47.660Z,100588.81
2022-10-10T03:03:49.480Z,100594.06
2022-10-10T03:05:51.099Z,100595.16
2022-10-10T03:07:54.000Z,100598.97
2022-10-10T03:09:55.531Z,100599.34
2022-10-10T03:11:57.133Z,100595.66
2022-10-10T03:13:58.635Z,100601.38
2022-10-10T03:16:00.129Z,100594.06
2022-10-10T03:18:01.705Z,100599.66
2022-10-10T03:20:03.773Z,100594.84
2022-10-10T03:22:05.442Z,100596.75
2022-10-10T03:24:10.511Z,100604.00
2022-10-10T03:26:14.152Z,100601.28
2022-10-10T03:28:15.873Z,100603.63
2022-10-10T03:30:17.486Z,100600.69
2022-10-10T03:32:19.373Z,100603.53
2022-10-10T03:34:20.856Z,100606.75
2022-10-10T03:36:22.791Z,100601.78
2022-10-10T03:38:24.498Z,100608.63
2022-10-10T03:40:28.452Z,100603.53
2022-10-10T03:42:30.280Z,100603.81
2022-10-10T03:44:31.785Z,100600.31
2022-10-10T03:46:33.338Z,100596.81
2022-10-10T03:48:34.803Z,100598.50
2022-10-10T03:50:36.609Z,100603.63
2022-10-10T03:52:38.230Z,100599.28
2022-10-10T03:54:39.796Z,100601.22
2022-10-10T03:56:43.263Z,100609.66
2022-10-10T03:58:44.962Z,100601.72
2022-10-10T04:00:53.194Z,100602.31
2022-10-10T04:02:54.760Z,100601.72
2022-10-10T04:04:56.382Z,100602.50
2022-10-10T04:06:58.091Z,100613.69
2022-10-10T04:08:59.761Z,100608.84
2022-10-10T04:11:01.248Z,100603.22
2022-10-10T04:13:06.666Z,100603.22
2022-10-10T04:15:09.169Z,100607.06
2022-10-10T04:17:10.827Z,100607.06
2022-10-10T04:19:12.378Z,100604.16
2022-10-10T04:21:13.980Z,100608.47
2022-10-10T04:23:15.526Z,100604.66
2022-10-10T04:25:17.387Z,100609.63
2022-10-10T04:27:19.096Z,100604.00
2022-10-10T04:29:21.926Z,100604.34
2022-10-10T04:31:23.591Z,100599.69
2022-10-10T04:33:25.322Z,100604.41
2022-10-10T04:35:26.900Z,100610.94
2022-10-10T04:37:28.437Z,100597.91
2022-10-10T04:39:30.087Z,100600.00
2022-10-10T04:41:31.705Z,100606.22
2022-10-10T04:43:33.237Z,100598.09
2022-10-10T04:45:37.751Z,100600.28
2022-10-10T04:47:39.415Z,100595.69
2022-10-10T04:49:41.014Z,100600.59
2022-10-10T04:51:42.801Z,100598.69
2022-10-10T04:53:49.451Z,100605.00
2022-10-10T04:55:51.961Z,100605.31
2022-10-10T04:57:53.792Z,100611.75
2022-10-10T04:59:55.372Z,100619.09
2022-10-10T05:02:01.881Z,100614.25
2022-10-10T05:04:04.063Z,100615.28
2022-10-10T05:06:05.992Z,100617.66
2022-10-10T05:08:07.518Z,100619.59
2022-10-10T05:10:09.636Z,100615.06
2022-10-10T05:12:11.158Z,100614.56
2022-10-10T05:14:12.711Z,100621.59
2022-10-10T05:16:14.295Z,100615.47
2022-10-10T05:18:17.195Z,100616.25
2022-10-10T05:20:21.139Z,100615.88
2022-10-10T05:22:22.781Z,100615.56
2022-10-10T05:24:24.440Z,100620.09
2022-10-10T05:26:25.991Z,100615.88
2022-10-10T05:28:27.702Z,100609.66
2022-10-10T05:30:29.282Z,100614.84
2022-10-10T05:32:30.827Z,100619.56
2022-10-10T05:34:33.755Z,100615.66
2022-10-10T05:36:35.298Z,100623.50
2022-10-10T05:38:37.775Z,100621.59
2022-10-10T05:40:39.658Z,100622.50
2022-10-10T05:42:41.353Z,100623.09
2022-10-10T05:44:42.892Z,100631.94
2022-10-10T05:46:44.385Z,100623.50
2022-10-10T05:48:46.021Z,100627.09
2022-10-10T05:50:51.376Z,100631.53
2022-10-10T05:52:53.615Z,100625.28
2022-10-10T05:54:55.490Z,100628.31
2022-10-10T05:56:57.131Z,100626.59
2022-10-10T05:58:58.969Z,100616.84
2022-10-10T06:01:03.504Z,100614.97
2022-10-10T06:03:05.157Z,100612.75
2022-10-10T06:05:09.719Z,100613.06
2022-10-10T06:07:12.653Z,100612.44
2022-10-10T06:09:14.196Z,100612.44
2022-10-10T06:11:16.241Z,100612.38
2022-10-10T06:13:24.079Z,100611.53
2022-10-10T06:15:25.999Z,100621.28
2022-10-10T06:17:27.693Z,100624.13
2022-10-10T06:19:29.381Z,100620.69
2022-10-10T06:21:31.238Z,100625.13
2022-10-10T06:23:34.827Z,100621.31
2022-10-10T06:25:41.609Z,100622.59
2022-10-10T06:27:43.643Z,100631.84
2022-10-10T06:29:45.457Z,100628.75
2022-10-10T06:31:47.000Z,100626.50
2022-10-10T06:33:48.776Z,100617.06
2022-10-10T06:35:50.322Z,100628.13
2022-10-10T06:37:51.966Z,100622.91
2022-10-10T06:39:54.884Z,100630.53
2022-10-10T06:41:56.544Z,100635.34
2022-10-10T06:43:58.190Z,100626.09
2022-10-10T06:45:59.771Z,100623.13
2022-10-10T06:48:01.450Z,100627.66
2022-10-10T06:50:03.530Z,100630.69
2022-10-10T06:52:05.274Z,100634.38
2022-10-10T06:54:07.249Z,100638.38
2022-10-10T06:56:11.418Z,100642.44
2022-10-10T06:58:12.961Z,100647.84
2022-10-10T07:00:15.207Z,100651.06
2022-10-10T07:02:16.761Z,100655.59
2022-10-10T07:04:18.461Z,100662.91
2022-10-10T07:06:20.700Z,100666.44
2022-10-10T07:08:26.166Z,100663.09
2022-10-10T07:10:27.810Z,100663.91
2022-10-10T07:12:35.136Z,100662.50
2022-10-10T07:14:41.262Z,100666.31
2022-10-10T07:16:42.861Z,100667.94
2022-10-10T07:18:44.728Z,100665.72
2022-10-10T07:20:47.034Z,100672.56
2022-10-10T07:22:48.773Z,100672.66
2022-10-10T07:24:50.582Z,100677.28
2022-10-10T07:27:02.415Z,100680.72
2022-10-10T07:29:08.126Z,100686.63
2022-10-10T07:31:11.016Z,100695.25
2022-10-10T07:33:13.631Z,100693.56
2022-10-10T07:35:15.266Z,100695.44
2022-10-10T07:37:16.935Z,100694.06
2022-10-10T07:39:19.877Z,100689.16
2022-10-10T07:41:23.235Z,100689.03
2022-10-10T07:43:24.796Z,100688.41
2022-10-10T07:45:27.843Z,100690.03
2022-10-10T07:47:29.501Z,100694.53
2022-10-10T07:49:31.268Z,100697.81
2022-10-10T07:51:32.845Z,100695.09
2022-10-10T07:53:34.393Z,100698.88
2022-10-10T07:55:38.964Z,100695.31
2022-10-10T07:57:40.565Z,100691.78
2022-10-10T07:59:42.148Z,100694.41
2022-10-10T08:01:45.163Z,100694.75
2022-10-10T08:03:47.528Z,100697.22
2022-10-10T08:05:51.352Z,100690.28
2022-10-10T08:07:53.549Z,100689.69
2022-10-10T08:09:55.484Z,100689.25
2022-10-10T08:11:57.293Z,100684.16
2022-10-10T08:13:59.063Z,100685.78
2022-10-10T08:16:01.685Z,100693.06
2022-10-10T08:18:05.423Z,100692.47
2022-10-10T08:20:07.342Z,100694.44
2022-10-10T08:22:08.968Z,100693.81
2022-10-10T08:24:10.621Z,100696.88
2022-10-10T08:26:14.114Z,100696.41
2022-10-10T08:28:16.049Z,100690.00
2022-10-10T08:30:17.990Z,100692.72
2022-10-10T08:32:19.678Z,100692.06
2022-10-10T08:34:22.746Z,100688.06
2022-10-10T08:36:24.821Z,100694.16
2022-10-10T08:38:26.630Z,100694.81
2022-10-10T08:40:28.301Z,100684.06
2022-10-10T08:42:33.776Z,100689.06
2022-10-10T08:44:42.448Z,100690.19
2022-10-10T08:46:48.687Z,100687.13
2022-10-10T08:48:53.612Z,100682.16
2022-10-10T08:51:02.300Z,100687.91
2022-10-10T08:53:09.401Z,100695.59
2022-10-10T08:55:17.470Z,100688.81
2022-10-10T08:57:26.061Z,100682.84
2022-10-10T08:59:31.998Z,100685.72
2022-10-10T09:01:36.399Z,100688.91
2022-10-10T09:03:59.712Z,100687.44
2022-10-10T09:06:17.346Z,100681.34
2022-10-10T09:08:34.774Z,100681.78
2022-10-10T09:10:49.788Z,100676.00
2022-10-10T09:13:07.095Z,100677.59
2022-10-10T09:15:14.984Z,100675.94
2022-10-10T09:17:22.779Z,100671.94
2022-10-10T09:19:38.788Z,100676.75
2022-10-10T09:21:43.542Z,100670.97
2022-10-10T09:23:51.548Z,100667.34
2022-10-10T09:25:59.889Z,100660.91
2022-10-10T09:28:08.009Z,100668.06
2022-10-10T09:30:17.659Z,100671.22
2022-10-10T09:32:23.992Z,100668.34
2022-10-10T09:34:32.691Z,100662.03
2022-10-10T09:36:37.147Z,100656.34
2022-10-10T09:38:44.154Z,100656.28
2022-10-10T09:40:49.640Z,100648.00
2022-10-10T09:42:51.289Z,100642.66
2022-10-10T09:44:53.126Z,100647.69
2022-10-10T09:46:55.301Z,100648.38
2022-10-10T09:48:58.046Z,100652.28
2022-10-10T09:51:01.093Z,100650.13
2022-10-10T09:53:03.151Z,100658.38
2022-10-10T09:55:19.966Z,100661.06
2022-10-10T09:57:25.765Z,100657.28
2022-10-10T09:59:39.778Z,100663.88
2022-10-10T10:01:41.421Z,100663.56
2022-10-10T10:03:44.324Z,100664.91
2022-10-10T10:05:55.146Z,100668.75
2022-10-10T10:07:56.945Z,100657.63
2022-10-10T10:10:01.434Z,100654.72
2022-10-10T10:12:05.424Z,100660.66
2022-10-10T10:14:20.237Z,100659.53
2022-10-10T10:16:31.543Z,100662.44
2022-10-10T10:18:40.225Z,100660.56
2022-10-10T10:20:44.001Z,100650.56
2022-10-10T10:22:47.293Z,100657.03
2022-10-10T10:24:49.241Z,100647.72
2022-10-10T10:26:51.075Z,100652.41
2022-10-10T10:28:58.009Z,100650.34
2022-10-10T10:31:00.135Z,100651.97
2022-10-10T10:33:09.089Z,100655.81
2022-10-10T10:35:20.652Z,100654.72
2022-10-10T10:37:26.179Z,100655.47
2022-10-10T10:39:44.830Z,100645.50
2022-10-10T10:41:56.091Z,100649.91
2022-10-10T10:44:14.427Z,100650.41
2022-10-10T10:46:26.796Z,100654.50
2022-10-10T10:48:39.749Z,100660.06
2022-10-10T10:50:48.741Z,100653.91
2022-10-10T10:52:59.045Z,100657.75
2022-10-10T10:55:14.601Z,100647.56
2022-10-10T10:57:59.987Z,100647.63
2022-10-10T11:00:26.568Z,100657.09
2022-10-10T11:02:56.001Z,100646.28
2022-10-10T11:05:29.636Z,100640.56
2022-10-10T11:07:44.936Z,100639.66
2022-10-10T11:09:56.470Z,100641.31
2022-10-10T11:12:05.460Z,100642.13
2022-10-10T11:14:20.101Z,100642.34
2022-10-10T11:16:48.352Z,100642.44
2022-10-10T11:19:12.109Z,100639.59
2022-10-10T11:21:17.154Z,100639.63
2022-10-10T11:23:22.764Z,100638.44
2022-10-10T11:25:29.868Z,100636.81
2022-10-10T11:27:38.061Z,100632.34
2022-10-10T11:29:51.468Z,100632.50
2022-10-10T11:32:00.783Z,100630.16
2022-10-10T11:34:09.448Z,100632.94
2022-10-10T11:36:18.362Z,100634.28
2022-10-10T11:38:25.301Z,100630.16
2022-10-10T11:40:37.175Z,100627.06
2022-10-10T11:42:48.715Z,100626.00
2022-10-10T11:44:56.313Z,100629.91
2022-10-10T11:47:06.953Z,100626.75
2022-10-10T11:49:17.768Z,100626.19
2022-10-10T11:51:30.021Z,100621.28
2022-10-10T11:53:37.744Z,100629.06
2022-10-10T11:55:45.366Z,100630.00
2022-10-10T11:57:52.718Z,100617.84
2022-10-10T11:59:59.067Z,100621.41
2022-10-10T12:02:12.200Z,100619.94
2022-10-10T12:04:13.983Z,100620.47
2022-10-10T12:06:22.319Z,100615.34
2022-10-10T12:08:31.356Z,100618.88
2022-10-10T12:10:38.625Z,100627.34
2022-10-10T12:12:44.579Z,100621.34
2022-10-10T12:14:48.686Z,100629.13
2022-10-10T12:16:51.156Z,100614.13
2022-10-10T12:18:59.514Z,100615.91
2022-10-10T12:21:07.519Z,100613.00
2022-10-10T12:23:21.954Z,100608.81
2022-10-10T12:25:35.279Z,100619.81
2022-10-10T12:27:44.463Z,100616.94
2022-10-10T12:30:03.835Z,100622.44
2022-10-10T12:32:26.283Z,100617.84
2022-10-10T12:34:46.586Z,100612.50
2022-10-10T12:36:57.261Z,100614.28
2022-10-10T12:39:37.052Z,100609.66
2022-10-10T12:41:55.459Z,100612.00
2022-10-10T12:44:19.972Z,100614.38
2022-10-10T12:46:25.182Z,100604.47
2022-10-10T12:48:27.475Z,100599.66
2022-10-10T12:50:34.535Z,100605.16
2022-10-10T12:52:46.454Z,100595.97
2022-10-10T12:54:50.030Z,100605.34
2022-10-10T12:57:00.488Z,100603.31
2022-10-10T12:59:03.018Z,100607.56
2022-10-10T13:01:08.944Z,100612.31
2022-10-10T13:03:19.934Z,100613.47
2022-10-10T13:05:28.002Z,100609.47
2022-10-10T13:07:31.544Z,100606.66
2022-10-10T13:09:35.874Z,100603.41
2022-10-10T13:11:51.297Z,100607.28
2022-10-10T13:13:55.021Z,100602.00
2022-10-10T13:15:58.983Z,100611.34
2022-10-10T13:18:00.856Z,100612.38
2022-10-10T13:20:03.929Z,100606.72
2022-10-10T13:22:05.530Z,100601.19
2022-10-10T13:24:16.823Z,100597.34
2022-10-10T13:26:22.475Z,100598.53
2022-10-10T13:28:24.245Z,100597.66
2022-10-10T13:30:26.710Z,100602.72
2022-10-10T13:32:31.528Z,100600.16
2022-10-10T13:34:36.656Z,100596.25
2022-10-10T13:36:38.824Z,100586.97
2022-10-10T13:38:40.323Z,100593.88
2022-10-10T13:40:44.622Z,100587.97
2022-10-10T13:42:47.526Z,100588.41
2022-10-10T13:44:52.699Z,100589.13
2022-10-10T13:46:54.331Z,100585.00
2022-10-10T13:48:56.587Z,100588.44
2022-10-10T13:51:07.471Z,100585.44
2022-10-10T13:53:33.318Z,100588.19
2022-10-10T13:55:37.971Z,100579.03
2022-10-10T13:57:41.648Z,100585.34
2022-10-10T13:59:45.344Z,100585.69
2022-10-10T14:01:48.585Z,100586.06
2022-10-10T14:03:51.679Z,100582.50
2022-10-10T14:05:56.271Z,100585.31
2022-10-10T14:07:58.786Z,100590.00
2022-10-10T14:10:04.863Z,100591.16
2022-10-10T14:12:15.281Z,100584.84
2022-10-10T14:14:22.470Z,100591.84
2022-10-10T14:16:26.097Z,100588.88
2022-10-10T14:18:27.864Z,100586.03
2022-10-10T14:20:29.587Z,100587.69
2022-10-10T14:22:31.127Z,100580.56
2022-10-10T14:24:32.732Z,100592.88
2022-10-10T14:26:36.113Z,100581.00
2022-10-10T14:28:39.278Z,100584.50
2022-10-10T14:30:43.023Z,100590.81
2022-10-10T14:32:45.088Z,100583.72
2022-10-10T14:34:46.656Z,100589.19
2022-10-10T14:36:50.029Z,100586.69
2022-10-10T14:38:52.559Z,100594.97
2022-10-10T14:40:55.097Z,100591.00
2022-10-10T14:42:56.775Z,100581.78
2022-10-10T14:44:58.427Z,100581.78
2022-10-10T14:47:01.433Z,100583.78
2022-10-10T14:49:03.717Z,100588.47
2022-10-10T14:51:33.189Z,100585.22
2022-10-10T14:53:31.436Z,100582.53
2022-10-10T14:55:33.195Z,100581.56
2022-10-10T14:57:34.955Z,100576.03
2022-10-10T14:59:49.342Z,100582.72
2022-10-10T15:01:53.383Z,100585.44
2022-10-10T15:03:56.301Z,100581.47
2022-10-10T15:05:58.282Z,100574.72
2022-10-10T15:08:00.105Z,100581.69
2022-10-10T15:10:32.785Z,100583.97
2022-10-10T15:12:26.031Z,100581.16
2022-10-10T15:14:27.689Z,100585.09
2022-10-10T15:16:29.589Z,100580.25
2022-10-10T15:18:53.341Z,100577.13
2022-10-10T15:20:54.916Z,100577.94
2022-10-10T15:22:57.337Z,100569.59
2022-10-10T15:24:59.639Z,100569.19
2022-10-10T15:27:01.585Z,100576.28
2022-10-10T15:29:03.319Z,100577.75
2022-10-10T15:31:06.080Z,100584.41
2022-10-10T15:33:07.931Z,100585.22
2022-10-10T15:35:13.557Z,100585.47
2022-10-10T15:37:17.083Z,100588.94
2022-10-10T15:39:18.984Z,100588.59
2022-10-10T15:41:21.055Z,100594.09
2022-10-10T15:43:22.687Z,100591.69
2022-10-10T15:45:44.054Z,100593.59
2022-10-10T15:47:46.745Z,100591.88
2022-10-10T15:49:48.756Z,100586.75
2022-10-10T15:51:50.369Z,100597.69
2022-10-10T15:53:56.093Z,100592.50
2022-10-10T15:55:57.862Z,100589.94
2022-10-10T15:57:59.935Z,100595.13
2022-10-10T16:00:02.098Z,100593.59
2022-10-10T16:02:03.740Z,100605.56
2022-10-10T16:04:06.000Z,100599.19
2022-10-10T16:06:08.502Z,100605.06
2022-10-10T16:08:10.957Z,100598.34
2022-10-10T16:10:13.897Z,100609.69
2022-10-10T16:12:15.691Z,100616.38
2022-10-10T16:14:17.421Z,100615.41
2022-10-10T16:16:21.579Z,100622.50
2022-10-10T16:18:23.170Z,100617.72
2022-10-10T16:20:38.104Z,100620.03
2022-10-10T16:22:39.865Z,100621.19
2022-10-10T16:24:42.800Z,100620.75
2022-10-10T16:26:50.048Z,100622.28
2022-10-10T16:28:52.573Z,100630.47
2022-10-10T16:30:54.393Z,100624.97
2022-10-10T16:32:56.149Z,100622.56
2022-10-10T16:34:58.338Z,100633.56
2022-10-10T16:37:00.205Z,100626.84
2022-10-10T16:39:02.024Z,100626.78
2022-10-10T16:41:04.817Z,100629.09
2022-10-10T16:43:08.627Z,100629.81
2022-10-10T16:45:11.515Z,100628.59
2022-10-10T16:47:13.161Z,100636.31
2022-10-10T16:49:14.889Z,100638.63
2022-10-10T16:51:18.676Z,100648.84
2022-10-10T16:53:20.513Z,100645.28
2022-10-10T16:55:22.293Z,100648.25
2022-10-10T16:57:24.046Z,100650.56
2022-10-10T16:59:28.993Z,100647.75
2022-10-10T17:01:31.416Z,100649.25
2022-10-10T17:03:33.122Z,100650.41
2022-10-10T17:05:34.917Z,100652.72
2022-10-10T17:07:36.933Z,100643.22
2022-10-10T17:09:38.850Z,100649.09
2022-10-10T17:11:40.668Z,100651.06
2022-10-10T17:13:42.860Z,100657.72
2022-10-10T17:15:46.210Z,100648.66
2022-10-10T17:17:48.071Z,100652.84
2022-10-10T17:19:49.783Z,100649.19
2022-10-10T17:21:51.590Z,100656.56
2022-10-10T17:23:53.385Z,100662.41
2022-10-10T17:25:55.010Z,100660.78
2022-10-10T17:27:56.546Z,100661.88
2022-10-10T17:29:58.265Z,100661.53
2022-10-10T17:32:05.916Z,100662.25
2022-10-10T17:34:08.187Z,100657.81
2022-10-10T17:36:12.194Z,100655.78
2022-10-10T17:38:35.031Z,100659.22
2022-10-10T17:40:37.132Z,100654.34
2022-10-10T17:42:38.875Z,100653.81
2022-10-10T17:44:48.350Z,100652.22
2022-10-10T17:46:53.025Z,100647.88
2022-10-10T17:48:56.774Z,100657.31
2022-10-10T17:50:59.149Z,100668.69
2022-10-10T17:53:00.801Z,100674.94
2022-10-10T17:55:02.571Z,100681.56
2022-10-10T17:57:04.556Z,100683.16
2022-10-10T17:59:07.432Z,100696.53
2022-10-10T18:01:09.579Z,100722.84
2022-10-10T18:03:12.328Z,100736.81
2022-10-10T18:05:15.719Z,100730.00
2022-10-10T18:07:17.464Z,100731.38
2022-10-10T18:09:19.364Z,100739.28
2022-10-10T18:11:25.011Z,100742.72
2022-10-10T18:13:27.000Z,100738.28
2022-10-10T18:15:28.883Z,100745.75
2022-10-10T18:17:30.464Z,100746.16
2022-10-10T18:19:32.640Z,100759.03
2022-10-10T18:21:36.352Z,100764.16
2022-10-10T18:23:38.570Z,100762.94
2022-10-10T18:25:40.629Z,100753.75
2022-10-10T18:27:42.680Z,100755.84
2022-10-10T18:29:44.861Z,100741.81
2022-10-10T18:31:47.375Z,100754.53
2022-10-10T18:33:49.636Z,100753.72
2022-10-10T18:35:51.318Z,100760.34
2022-10-10T18:37:54.408Z,100766.38
2022-10-10T18:39:56.003Z,100763.75
2022-10-10T18:41:58.027Z,100766.50
2022-10-10T18:44:00.864Z,100772.47
2022-10-10T18:46:03.926Z,100778.63
2022-10-10T18:48:06.182Z,100769.03
2022-10-10T18:50:09.026Z,100773.63
2022-10-10T18:52:10.584Z,100762.97
2022-10-10T18:54:16.035Z,100766.63
2022-10-10T18:56:19.623Z,100775.97
2022-10-10T18:58:21.499Z,100770.84
2022-10-10T19:00:23.347Z,100762.97
2022-10-10T19:02:25.054Z,100762.28
2022-10-10T19:04:26.850Z,100759.53
2022-10-10T19:06:29.375Z,100767.53
2022-10-10T19:08:31.120Z,100765.13
2022-10-10T19:10:34.231Z,100763.19
2022-10-10T19:12:38.750Z,100767.63
2022-10-10T19:14:40.426Z,100769.94
2022-10-10T19:16:43.281Z,100779.75
2022-10-10T19:18:45.031Z,100794.97
2022-10-10T19:20:48.894Z,100801.13
2022-10-10T19:22:50.446Z,100798.97
2022-10-10T19:24:52.075Z,100795.97
2022-10-10T19:26:56.219Z,100802.84
2022-10-10T19:28:57.983Z,100798.72
2022-10-10T19:31:03.836Z,100812.44
2022-10-10T19:33:06.134Z,100820.09
2022-10-10T19:35:08.210Z,100830.44
2022-10-10T19:37:09.992Z,100819.72
2022-10-10T19:39:11.773Z,100830.69
2022-10-10T19:41:15.372Z,100839.69
2022-10-10T19:43:18.951Z,100848.25
2022-10-10T19:45:20.932Z,100862.75
2022-10-10T19:47:23.083Z,100873.28
2022-10-10T19:49:24.801Z,100875.53
2022-10-10T19:51:28.127Z,100866.50
2022-10-10T19:53:29.939Z,100889.78
2022-10-10T19:55:31.561Z,100889.78
2022-10-10T19:57:33.123Z,100893.19
2022-10-10T19:59:36.315Z,100892.50
2022-10-10T20:01:38.081Z,100891.06
2022-10-10T20:03:39.853Z,100893.13
2022-10-10T20:05:41.498Z,100904.19
2022-10-10T20:07:43.228Z,100915.16
2022-10-10T20:09:45.347Z,100921.22
2022-10-10T20:11:47.043Z,100918.88
2022-10-10T20:13:49.988Z,100920.75
2022-10-10T20:15:53.159Z,100916.63
2022-10-10T20:17:54.722Z,100915.03
2022-10-10T20:19:56.372Z,100912.34
2022-10-10T20:21:58.008Z,100919.50
2022-10-10T20:24:02.658Z,100914.75
2022-10-10T20:26:13.049Z,100920.06
2022-10-10T20:28:17.390Z,100924.22
2022-10-10T20:30:21.846Z,100927.56
2022-10-10T20:32:24.986Z,100927.22
2022-10-10T20:34:26.876Z,100941.38
2022-10-10T20:36:30.121Z,100941.84
2022-10-10T20:38:31.780Z,100946.19
2022-10-10T20:40:37.424Z,100943.31
2022-10-10T20:42:38.992Z,100942.03
2022-10-10T20:44:40.610Z,100944.47
2022-10-10T20:46:44.109Z,100947.50
2022-10-10T20:48:47.079Z,100950.25
2022-10-10T20:50:48.783Z,100956.41
2022-10-10T20:52:50.425Z,100959.59
2022-10-10T20:54:54.787Z,100970.22
2022-10-10T20:56:56.684Z,100970.53
2022-10-10T20:58:58.791Z,100971.34
2022-10-10T21:01:05.087Z,100976.00
2022-10-10T21:03:06.631Z,100979.56
2022-10-10T21:05:09.742Z,100980.34
2022-10-10T21:07:11.388Z,100982.63
2022-10-10T21:09:14.676Z,100978.59
2022-10-10T21:11:18.522Z,100978.13
2022-10-10T21:13:20.111Z,100972.22
2022-10-10T21:15:21.669Z,100970.47
2022-10-10T21:17:23.304Z,100977.84
2022-10-10T21:19:24.891Z,100990.75
2022-10-10T21:21:31.460Z,100990.41
2022-10-10T21:23:36.137Z,100993.63
2022-10-10T21:25:38.012Z,100994.88
2022-10-10T21:27:39.534Z,100999.56
2022-10-10T21:29:41.068Z,100996.34
2022-10-10T21:31:45.263Z,101001.50
2022-10-10T21:33:47.456Z,101008.09
2022-10-10T21:35:51.580Z,101010.81
2022-10-10T21:37:54.458Z,101021.28
2022-10-10T21:39:56.053Z,101015.81
2022-10-10T21:41:58.192Z,101022.28
2022-10-10T21:44:00.322Z,101017.16
2022-10-10T21:46:03.196Z,101026.81
2022-10-10T21:48:06.875Z,101018.16
2022-10-10T21:50:09.429Z,101023.13
2022-10-10T21:52:11.393Z,101025.38
2022-10-10T21:54:14.745Z,101024.59
2022-10-10T21:56:16.813Z,101021.38
2022-10-10T21:58:21.262Z,101028.78
2022-10-10T22:00:23.096Z,101034.25
2022-10-10T22:02:25.024Z,101025.72
2022-10-10T22:04:29.165Z,101035.53
2022-10-10T22:06:31.117Z,101037.31
2022-10-10T22:08:33.113Z,101044.41
2022-10-10T22:10:36.223Z,101046.00
2022-10-10T22:12:38.297Z,101055.00
2022-10-10T22:14:39.858Z,101052.59
2022-10-10T22:16:41.454Z,101058.84
2022-10-10T22:18:43.661Z,101056.94
2022-10-10T22:20:45.440Z,101051.13
2022-10-10T22:22:46.989Z,101059.19
2022-10-10T22:24:48.630Z,101054.06
2022-10-10T22:26:51.555Z,101052.59
2022-10-10T22:28:53.353Z,101056.13
2022-10-10T22:30:54.952Z,101051.34
2022-10-10T22:32:56.512Z,101056.19
2022-10-10T22:34:58.206Z,101061.16
2022-10-10T22:36:59.770Z,101052.13
2022-10-10T22:39:01.374Z,101056.81
2022-10-10T22:41:03.111Z,101056.19
2022-10-10T22:43:06.015Z,101067.13
2022-10-10T22:45:08.270Z,101064.03
2022-10-10T22:47:10.089Z,101061.78
2022-10-10T22:49:11.921Z,101071.25
2022-10-10T22:51:15.756Z,101071.13
2022-10-10T22:53:17.450Z,101075.13
2022-10-10T22:55:19.230Z,101073.53
2022-10-10T22:57:21.022Z,101079.00
2022-10-10T22:59:23.912Z,101078.69
2022-10-10T23:01:26.487Z,101079.00
2022-10-10T23:03:28.270Z,101085.91
2022-10-10T23:05:29.791Z,101088.19
2022-10-10T23:07:31.382Z,101095.25
2022-10-10T23:09:33.288Z,101093.97
2022-10-10T23:11:34.975Z,101101.38
2022-10-10T23:13:37.098Z,101093.66
2022-10-10T23:15:40.282Z,101091.41
2022-10-10T23:17:41.894Z,101098.31
2022-10-10T23:19:43.508Z,101095.59
2022-10-10T23:21:45.353Z,101101.38
2022-10-10T23:23:46.945Z,101088.38
2022-10-10T23:25:48.636Z,101098.00
2022-10-10T23:27:50.404Z,101097.06
2022-10-10T23:29:52.080Z,101098.53
2022-10-10T23:31:54.982Z,101099.31
2022-10-10T23:33:56.506Z,101100.94
2022-10-10T23:35:58.570Z,101100.09
2022-10-10T23:38:00.213Z,101096.59
2022-10-10T23:40:01.770Z,101100.28
2022-10-10T23:42:03.359Z,101108.16